Time;durP1;ratioP1;P1;durP2;ratioP2;P2;SDS_P1;SDS_P2;PMS_P1;PMS_P2;Temp;Humidity;BMP_temperature;BMP_pressure;BME280_temperature;BME280_humidity;BME280_pressure;Samples;Min_cycle;Max_cycle;Signal;HPM_P1;HPM_P2
2021/09/06 00:01:04;;;;;;;26.80;19.02;;;14.50;99.90;;;;;;6156235;23;20664;-78
2021/09/06 00:03:31;;;;;;;25.65;18.50;;;14.50;99.90;;;;;;6155490;23;20240;-77
2021/09/06 00:06:00;;;;;;;21.90;17.98;;;14.50;99.90;;;;;;6155484;23;20161;-77
2021/09/06 00:08:27;;;;;;;25.38;19.83;;;14.50;99.90;;;;;;6155129;23;20486;-78
2021/09/06 00:11:02;;;;;;;26.60;19.00;;;14.50;99.90;;;;;;6155604;23;20205;-77
2021/09/06 00:13:29;;;;;;;26.70;20.05;;;14.50;99.90;;;;;;6155782;23;20167;-76
2021/09/06 00:15:56;;;;;;;25.33;18.52;;;14.50;99.90;;;;;;6154775;23;20166;-76
2021/09/06 00:18:25;;;;;;;24.45;18.50;;;14.50;99.90;;;;;;6154882;23;20165;-78
2021/09/06 00:20:53;;;;;;;22.50;20.13;;;14.50;99.90;;;;;;6155252;23;20201;-78
2021/09/06 00:23:21;;;;;;;22.98;18.02;;;14.50;99.90;;;;;;6155634;23;20169;-76
2021/09/06 00:25:49;;;;;;;20.25;16.15;;;14.50;99.90;;;;;;6154704;23;20172;-77
2021/09/06 00:28:16;;;;;;;29.67;20.50;;;14.50;99.90;;;;;;6156055;23;20162;-77
2021/09/06 00:30:43;;;;;;;24.60;18.58;;;14.50;99.90;;;;;;6154755;23;20166;-78
2021/09/06 00:33:13;;;;;;;23.48;19.48;;;14.50;99.90;;;;;;6155733;23;20162;-76
2021/09/06 00:35:40;;;;;;;28.10;19.55;;;14.50;99.90;;;;;;6154724;23;20185;-77
2021/09/06 00:38:08;;;;;;;26.90;18.63;;;14.50;99.90;;;;;;6156042;23;20550;-78
2021/09/06 00:40:36;;;;;;;22.88;18.95;;;14.50;99.90;;;;;;6156028;23;20161;-78
2021/09/06 00:43:04;;;;;;;27.05;20.17;;;14.40;99.90;;;;;;6155492;23;20165;-78
2021/09/06 00:45:31;;;;;;;21.70;16.48;;;14.40;99.90;;;;;;6155984;23;20220;-76
2021/09/06 00:47:58;;;;;;;25.95;18.35;;;14.30;99.90;;;;;;6154099;23;20161;-77
2021/09/06 00:50:25;;;;;;;21.10;17.75;;;14.30;99.90;;;;;;6155735;23;20175;-75
2021/09/06 00:52:53;;;;;;;25.05;18.85;;;14.30;99.90;;;;;;6157183;23;20168;-78
2021/09/06 00:55:20;;;;;;;20.70;17.05;;;14.30;99.90;;;;;;6155824;23;20200;-76
2021/09/06 00:57:49;;;;;;;27.15;19.08;;;14.20;99.90;;;;;;6154786;23;20169;-78
2021/09/06 01:00:18;;;;;;;23.27;17.65;;;14.10;99.90;;;;;;6155181;23;20626;-76
2021/09/06 01:02:46;;;;;;;22.23;18.63;;;14.10;99.90;;;;;;6155281;23;20196;-76
2021/09/06 01:05:15;;;;;;;21.92;17.58;;;14.00;99.90;;;;;;6154999;23;20168;-78
2021/09/06 01:07:42;;;;;;;19.20;16.65;;;14.00;99.90;;;;;;6155374;23;20175;-75
2021/09/06 01:10:12;;;;;;;19.55;16.42;;;13.90;99.90;;;;;;6155175;23;20172;-77
2021/09/06 01:12:40;;;;;;;24.83;18.63;;;13.90;99.90;;;;;;6155471;23;20548;-76
2021/09/06 01:15:43;;;;;;;24.15;16.65;;;13.80;99.90;;;;;;6155464;23;20204;-77
2021/09/06 01:18:10;;;;;;;20.25;17.55;;;13.80;99.90;;;;;;6156222;23;20163;-77
2021/09/06 01:20:37;;;;;;;22.77;18.25;;;13.80;99.90;;;;;;6156200;23;20167;-76
2021/09/06 01:23:05;;;;;;;24.88;18.20;;;13.70;99.90;;;;;;6155524;23;20160;-77
2021/09/06 01:25:33;;;;;;;22.48;18.90;;;13.70;99.90;;;;;;6154945;23;20240;-76
2021/09/06 01:28:34;;;;;;;24.02;18.15;;;13.70;99.90;;;;;;6155442;23;20168;-76
2021/09/06 01:31:01;;;;;;;23.38;18.15;;;13.70;99.90;;;;;;6155234;23;20203;-76
2021/09/06 01:33:28;;;;;;;25.92;19.95;;;13.70;99.90;;;;;;6155554;23;20163;-78
2021/09/06 01:35:56;;;;;;;23.60;18.80;;;13.60;99.90;;;;;;6154431;23;20187;-76
2021/09/06 01:38:23;;;;;;;25.02;17.50;;;13.60;99.90;;;;;;6157046;23;20175;-78
2021/09/06 01:40:50;;;;;;;24.30;17.40;;;13.60;99.90;;;;;;6156989;23;20204;-78
2021/09/06 01:43:17;;;;;;;24.38;19.35;;;13.60;99.90;;;;;;6156929;23;20170;-76
2021/09/06 01:45:46;;;;;;;23.90;18.70;;;13.60;99.90;;;;;;6156620;23;20171;-77
2021/09/06 01:48:13;;;;;;;23.63;19.02;;;13.60;99.90;;;;;;6156800;23;20165;-77
2021/09/06 01:50:40;;;;;;;22.88;17.17;;;13.50;99.90;;;;;;6157108;23;20239;-77
2021/09/06 01:53:07;;;;;;;24.02;17.77;;;13.50;99.90;;;;;;6157188;23;20223;-77
2021/09/06 01:55:34;;;;;;;21.83;16.77;;;13.50;99.90;;;;;;6155571;23;20187;-78
2021/09/06 01:58:02;;;;;;;23.00;19.17;;;13.50;99.90;;;;;;6157082;23;20170;-78
2021/09/06 02:00:29;;;;;;;24.17;16.50;;;13.50;99.90;;;;;;6157143;23;20186;-76
2021/09/06 02:02:57;;;;;;;30.02;18.50;;;13.50;99.90;;;;;;6157412;23;20164;-78
2021/09/06 02:05:25;;;;;;;26.73;16.92;;;13.50;99.90;;;;;;6156519;23;20599;-77
2021/09/06 02:07:52;;;;;;;22.33;16.95;;;13.50;99.90;;;;;;6157764;23;20164;-78
2021/09/06 02:10:19;;;;;;;24.05;19.05;;;13.50;99.90;;;;;;6156653;23;20544;-78
2021/09/06 02:12:47;;;;;;;22.40;17.38;;;13.50;99.90;;;;;;6157103;23;20539;-76
2021/09/06 02:15:14;;;;;;;22.63;17.98;;;13.40;99.90;;;;;;6155590;23;20189;-77
2021/09/06 02:17:41;;;;;;;25.20;18.42;;;13.40;99.90;;;;;;6156437;23;20167;-78
2021/09/06 02:20:10;;;;;;;23.55;20.20;;;13.40;99.90;;;;;;6156801;23;20169;-75
2021/09/06 02:22:38;;;;;;;23.98;16.88;;;13.30;99.90;;;;;;6156772;23;20205;-76
2021/09/06 02:25:06;;;;;;;20.65;16.65;;;13.30;99.90;;;;;;6156599;23;20627;-78
2021/09/06 02:27:33;;;;;;;23.02;16.13;;;13.30;99.90;;;;;;6157163;23;20692;-76
2021/09/06 02:30:00;;;;;;;21.10;16.92;;;13.30;99.90;;;;;;6157279;23;20168;-78
2021/09/06 02:32:28;;;;;;;20.98;17.48;;;13.30;99.90;;;;;;6156837;23;20209;-78
2021/09/06 02:34:55;;;;;;;25.45;17.52;;;13.30;99.90;;;;;;6155809;23;20192;-77
2021/09/06 02:37:24;;;;;;;18.73;15.55;;;13.20;99.90;;;;;;6156907;23;20618;-77
2021/09/06 02:39:52;;;;;;;20.35;17.08;;;13.20;99.90;;;;;;6157054;23;20171;-76
2021/09/06 02:42:19;;;;;;;23.15;17.55;;;13.20;99.90;;;;;;6156588;23;20531;-75
2021/09/06 02:44:46;;;;;;;20.13;16.92;;;13.20;99.90;;;;;;6155763;23;20634;-75
2021/09/06 02:47:14;;;;;;;18.88;15.00;;;13.20;99.90;;;;;;6155547;23;20239;-77
2021/09/06 02:49:41;;;;;;;23.98;18.58;;;13.10;99.90;;;;;;6156756;23;20243;-78
2021/09/06 02:52:08;;;;;;;20.67;16.95;;;13.10;99.90;;;;;;6157645;23;20203;-77
2021/09/06 02:54:37;;;;;;;24.20;18.73;;;13.10;99.90;;;;;;6164735;23;20183;-76
2021/09/06 02:57:04;;;;;;;21.38;17.58;;;13.10;99.90;;;;;;6164579;23;20182;-76
2021/09/06 02:59:32;;;;;;;26.73;17.75;;;13.10;99.90;;;;;;6157989;23;20167;-78
2021/09/06 03:01:59;;;;;;;25.48;18.63;;;13.00;99.90;;;;;;6156914;23;20531;-78
2021/09/06 03:04:26;;;;;;;19.83;16.17;;;13.00;99.90;;;;;;6156970;23;20487;-76
2021/09/06 03:06:53;;;;;;;24.27;18.48;;;13.00;99.90;;;;;;6157071;23;20151;-77
2021/09/06 03:09:20;;;;;;;22.05;19.17;;;12.90;99.90;;;;;;6157132;23;20166;-79
2021/09/06 03:11:50;;;;;;;26.02;18.67;;;13.00;99.90;;;;;;6155683;23;20216;-77
2021/09/06 03:14:17;;;;;;;26.60;18.55;;;13.00;99.90;;;;;;6156299;23;20580;-77
2021/09/06 03:16:47;;;;;;;25.75;19.83;;;13.00;99.90;;;;;;6156228;23;20172;-77
2021/09/06 03:19:14;;;;;;;24.30;17.90;;;12.80;99.90;;;;;;6156325;23;20172;-76
2021/09/06 03:21:41;;;;;;;24.95;18.35;;;13.00;99.90;;;;;;6156023;23;20243;-77
2021/09/06 03:24:09;;;;;;;20.80;17.30;;;12.90;99.90;;;;;;6156310;23;20594;-77
2021/09/06 03:26:36;;;;;;;22.23;16.77;;;12.90;99.90;;;;;;6155106;23;20167;-78
2021/09/06 03:29:05;;;;;;;19.30;17.20;;;12.90;99.90;;;;;;6156833;23;20170;-77
2021/09/06 03:31:32;;;;;;;24.58;18.98;;;12.80;99.90;;;;;;6156009;23;20529;-75
2021/09/06 03:33:59;;;;;;;26.23;18.73;;;12.80;99.90;;;;;;6156940;23;20238;-77
2021/09/06 03:36:27;;;;;;;23.63;18.63;;;12.80;99.90;;;;;;6155661;23;20186;-77
2021/09/06 03:38:55;;;;;;;23.27;16.80;;;12.80;99.90;;;;;;6154378;23;20186;-76
2021/09/06 03:41:23;;;;;;;22.67;17.85;;;12.70;99.90;;;;;;6155899;23;20256;-75
2021/09/06 03:43:51;;;;;;;25.67;18.05;;;12.60;99.90;;;;;;6155963;23;20168;-75
2021/09/06 03:46:19;;;;;;;18.92;16.50;;;12.60;99.90;;;;;;6155850;23;20164;-74
2021/09/06 03:48:46;;;;;;;26.50;18.33;;;12.60;99.90;;;;;;6155617;23;20169;-75
2021/09/06 03:51:14;;;;;;;22.50;15.75;;;12.60;99.90;;;;;;6155979;23;20204;-76
2021/09/06 03:53:41;;;;;;;23.13;16.50;;;12.50;99.90;;;;;;6155802;23;20168;-76
2021/09/06 03:56:08;;;;;;;23.02;17.30;;;12.50;99.90;;;;;;6156014;23;20185;-77
2021/09/06 03:58:35;;;;;;;23.05;16.60;;;12.50;99.90;;;;;;6156305;23;20167;-76
2021/09/06 04:01:02;;;;;;;19.83;16.00;;;12.50;99.90;;;;;;6155273;23;20201;-76
2021/09/06 04:03:31;;;;;;;21.42;15.15;;;12.50;99.90;;;;;;6156873;23;20170;-76
2021/09/06 04:05:58;;;;;;;21.85;17.00;;;12.50;99.90;;;;;;6154823;23;20181;-77
2021/09/06 04:08:25;;;;;;;19.90;16.60;;;12.50;99.90;;;;;;6156302;23;20166;-75
2021/09/06 04:10:53;;;;;;;22.05;15.40;;;12.40;99.90;;;;;;6156019;23;20267;-76
2021/09/06 04:13:20;;;;;;;26.75;17.70;;;12.50;99.90;;;;;;6155736;23;20326;-76
2021/09/06 04:15:47;;;;;;;21.42;17.35;;;12.50;99.90;;;;;;6155246;23;20188;-76
2021/09/06 04:18:15;;;;;;;24.55;17.27;;;12.40;99.90;;;;;;6155467;23;20173;-76
2021/09/06 04:20:44;;;;;;;30.05;19.60;;;12.40;99.90;;;;;;6155468;23;20167;-77
2021/09/06 04:23:11;;;;;;;22.88;16.35;;;12.40;99.90;;;;;;6155358;23;20280;-76
2021/09/06 04:25:38;;;;;;;21.10;15.27;;;12.40;99.90;;;;;;6155214;23;20185;-76
2021/09/06 04:28:05;;;;;;;23.50;18.23;;;12.40;99.90;;;;;;6156191;23;20166;-75
2021/09/06 04:30:33;;;;;;;24.23;18.85;;;12.40;99.90;;;;;;6155535;23;20163;-76
2021/09/06 04:33:00;;;;;;;28.63;18.08;;;12.50;99.90;;;;;;6155379;23;20165;-76
2021/09/06 04:35:27;;;;;;;27.05;19.05;;;12.40;99.90;;;;;;6154466;23;20182;-77
2021/09/06 04:37:56;;;;;;;24.05;19.30;;;12.50;99.90;;;;;;6155819;23;20165;-79
2021/09/06 04:40:23;;;;;;;24.98;18.80;;;12.40;99.90;;;;;;6155138;23;20605;-76
2021/09/06 04:42:50;;;;;;;24.05;19.83;;;12.50;99.90;;;;;;6155450;23;20195;-78
2021/09/06 04:45:17;;;;;;;25.42;19.98;;;12.60;99.90;;;;;;6154773;23;20573;-77
2021/09/06 04:47:45;;;;;;;24.15;18.67;;;12.60;99.90;;;;;;6154888;23;20261;-77
2021/09/06 04:50:12;;;;;;;25.05;18.88;;;12.60;99.90;;;;;;6155964;23;20548;-76
2021/09/06 04:52:40;;;;;;;21.45;16.92;;;12.60;99.90;;;;;;6156449;23;20283;-77
2021/09/06 04:55:09;;;;;;;20.33;16.25;;;12.90;99.90;;;;;;6155205;23;20622;-75
2021/09/06 04:57:36;;;;;;;25.52;17.58;;;12.90;99.90;;;;;;6156173;23;20171;-75
2021/09/06 05:00:04;;;;;;;21.42;16.50;;;12.90;99.90;;;;;;6158733;23;20603;-75
2021/09/06 05:02:31;;;;;;;19.65;14.70;;;13.00;99.90;;;;;;6156437;23;20201;-76
2021/09/06 05:04:58;;;;;;;23.90;17.80;;;13.10;99.90;;;;;;6155043;23;20183;-76
2021/09/06 05:07:25;;;;;;;27.63;21.85;;;13.20;99.90;;;;;;6156047;23;20170;-78
2021/09/06 05:09:52;;;;;;;18.75;16.65;;;13.20;99.90;;;;;;6155581;23;20492;-77
2021/09/06 05:12:21;;;;;;;18.23;15.27;;;13.30;99.90;;;;;;6156856;23;20213;-78
2021/09/06 05:14:48;;;;;;;22.48;15.82;;;13.40;99.90;;;;;;6157988;23;20164;-80
2021/09/06 05:17:15;;;;;;;21.08;16.05;;;13.50;99.90;;;;;;6157577;23;20191;-79
2021/09/06 05:19:42;;;;;;;23.17;18.60;;;13.50;99.90;;;;;;6157238;23;20623;-81
2021/09/06 05:22:09;;;;;;;24.05;16.48;;;13.50;99.90;;;;;;6158827;23;20203;-79
2021/09/06 05:24:37;;;;;;;26.13;19.52;;;13.60;99.90;;;;;;6157962;23;20174;-78
2021/09/06 05:27:05;;;;;;;22.48;18.45;;;13.70;99.90;;;;;;6157519;23;20219;-78
2021/09/06 05:29:34;;;;;;;29.90;18.77;;;13.70;99.90;;;;;;6158735;23;20167;-78
2021/09/06 05:32:01;;;;;;;25.05;18.90;;;13.50;99.90;;;;;;6158102;23;20204;-79
2021/09/06 05:34:28;;;;;;;24.20;17.55;;;13.70;99.90;;;;;;6158833;23;20626;-76
2021/09/06 05:36:55;;;;;;;24.17;18.48;;;13.70;99.90;;;;;;6156299;23;20192;-77
2021/09/06 05:39:23;;;;;;;25.65;19.40;;;13.80;99.90;;;;;;6159617;23;20163;-79
2021/09/06 05:41:50;;;;;;;29.13;21.05;;;13.90;99.90;;;;;;6156780;23;20263;-76
2021/09/06 05:44:18;;;;;;;21.38;17.33;;;14.10;99.90;;;;;;6157355;23;20165;-75
2021/09/06 05:46:46;;;;;;;22.90;15.95;;;14.50;99.90;;;;;;6156720;23;20157;-76
2021/09/06 05:49:13;;;;;;;19.05;16.75;;;14.80;99.90;;;;;;6156705;23;20162;-76
2021/09/06 05:51:40;;;;;;;30.10;18.02;;;15.00;99.90;;;;;;6156751;23;20537;-76
2021/09/06 05:54:07;;;;;;;29.98;17.58;;;15.40;99.90;;;;;;6156982;23;20183;-76
2021/09/06 05:56:35;;;;;;;18.90;13.77;;;15.90;99.90;;;;;;6157037;23;20190;-77
2021/09/06 05:59:02;;;;;;;16.80;13.93;;;16.70;99.90;;;;;;6156807;23;20169;-76
2021/09/06 06:01:52;;;;;;;23.03;15.53;;;17.40;99.90;;;;;;6157534;23;20205;-74
2021/09/06 06:04:19;;;;;;;20.67;14.90;;;18.10;99.90;;;;;;6157396;23;20397;-75
2021/09/06 06:06:47;;;;;;;20.27;15.13;;;18.70;99.90;;;;;;6157404;23;20399;-76
2021/09/06 06:09:14;;;;;;;21.27;14.97;;;19.30;99.90;;;;;;6157670;23;20389;-73
2021/09/06 06:11:41;;;;;;;18.77;14.20;;;19.80;99.90;;;;;;6156704;23;20978;-74
2021/09/06 06:14:09;;;;;;;17.77;14.47;;;20.20;99.90;;;;;;6157093;23;20399;-75
2021/09/06 06:16:36;;;;;;;19.37;15.53;;;20.60;99.90;;;;;;6156806;23;20593;-75
2021/09/06 06:19:05;;;;;;;20.87;16.47;;;21.10;99.90;;;;;;6157049;23;20749;-75
2021/09/06 06:21:33;;;;;;;17.70;14.13;;;21.50;99.90;;;;;;6157455;23;20439;-81
2021/09/06 06:24:01;;;;;;;17.97;14.23;;;21.90;99.90;;;;;;6156907;23;20855;-76
2021/09/06 06:26:28;;;;;;;19.37;16.00;;;22.30;99.70;;;;;;6156667;23;20400;-75
2021/09/06 06:28:56;;;;;;;22.83;18.50;;;22.60;98.20;;;;;;6156947;23;20400;-77
2021/09/06 06:31:23;;;;;;;16.27;14.40;;;22.70;97.40;;;;;;6156207;23;20494;-76
2021/09/06 06:33:51;;;;;;;18.57;15.17;;;22.70;97.60;;;;;;6156047;23;20385;-76
2021/09/06 06:36:19;;;;;;;18.50;14.60;;;23.10;97.00;;;;;;6156793;23;20428;-75
2021/09/06 06:38:49;;;;;;;19.00;15.73;;;23.20;96.60;;;;;;6156514;23;20413;-76
2021/09/06 06:41:16;;;;;;;23.43;16.17;;;23.30;96.40;;;;;;6157410;23;20447;-74
2021/09/06 06:43:44;;;;;;;22.83;16.67;;;23.10;96.60;;;;;;6156987;23;20388;-77
2021/09/06 06:46:11;;;;;;;19.30;15.67;;;23.50;96.40;;;;;;6157056;23;20427;-76
2021/09/06 06:48:39;;;;;;;26.67;14.77;;;23.80;95.80;;;;;;6156913;23;20703;-76
2021/09/06 06:51:06;;;;;;;21.07;16.20;;;24.10;95.20;;;;;;6157303;23;20435;-77
2021/09/06 06:53:36;;;;;;;18.23;14.93;;;24.10;94.90;;;;;;6156277;23;20395;-75
2021/09/06 06:56:04;;;;;;;19.03;15.67;;;24.20;94.60;;;;;;6156078;23;21227;-75
2021/09/06 06:58:31;;;;;;;20.90;17.07;;;24.40;94.30;;;;;;6157067;23;20493;-75
2021/09/06 07:00:58;;;;;;;18.87;15.37;;;24.60;93.90;;;;;;6156191;23;21006;-76
2021/09/06 07:03:26;;;;;;;16.47;14.07;;;24.90;93.80;;;;;;6156651;23;20593;-75
2021/09/06 07:05:53;;;;;;;19.23;14.97;;;25.20;93.20;;;;;;6156113;23;20393;-75
2021/09/06 07:08:20;;;;;;;21.67;16.10;;;25.30;92.60;;;;;;6156670;23;20377;-75
2021/09/06 07:10:49;;;;;;;19.17;15.73;;;25.20;92.20;;;;;;6155952;23;20953;-74
2021/09/06 07:13:16;;;;;;;21.07;15.63;;;25.30;92.80;;;;;;6156190;23;20446;-75
2021/09/06 07:15:43;;;;;;;21.97;16.53;;;25.50;92.80;;;;;;6156518;23;20385;-75
2021/09/06 07:18:10;;;;;;;16.80;14.47;;;25.80;91.90;;;;;;6156547;23;20393;-75
2021/09/06 07:20:38;;;;;;;19.00;14.30;;;26.80;91.00;;;;;;6157333;23;20397;-75
2021/09/06 07:23:05;;;;;;;19.40;15.43;;;27.00;90.40;;;;;;6156432;23;20411;-75
2021/09/06 07:25:32;;;;;;;23.63;17.27;;;27.10;90.00;;;;;;6155887;23;20393;-75
2021/09/06 07:28:01;;;;;;;27.07;17.10;;;26.90;89.20;;;;;;6156388;23;20393;-76
2021/09/06 07:30:30;;;;;;;19.33;15.10;;;27.00;89.20;;;;;;6155373;23;20397;-75
2021/09/06 07:32:57;;;;;;;17.87;15.43;;;26.80;89.90;;;;;;6156117;23;20397;-75
2021/09/06 07:35:25;;;;;;;17.43;15.63;;;26.10;90.20;;;;;;6155490;23;20401;-75
2021/09/06 07:37:52;;;;;;;17.10;14.43;;;26.20;90.70;;;;;;6156602;23;20437;-74
2021/09/06 07:40:19;;;;;;;17.27;14.60;;;26.60;90.20;;;;;;6155840;23;20393;-74
2021/09/06 07:42:47;;;;;;;18.00;14.87;;;26.80;89.70;;;;;;6156290;23;20437;-76
2021/09/06 07:45:17;;;;;;;20.13;16.20;;;26.80;89.50;;;;;;6155978;23;20405;-76
2021/09/06 07:47:44;;;;;;;18.63;15.00;;;26.90;89.60;;;;;;6156262;23;20393;-75
2021/09/06 07:50:14;;;;;;;19.97;15.63;;;27.30;88.00;;;;;;6156960;23;20400;-76
2021/09/06 07:52:41;;;;;;;18.27;15.27;;;27.60;87.30;;;;;;6155521;23;20451;-76
2021/09/06 07:55:10;;;;;;;19.30;14.40;;;28.10;86.60;;;;;;6155432;23;20397;-75
2021/09/06 07:57:37;;;;;;;19.57;16.17;;;28.30;85.70;;;;;;6155867;23;20428;-75
2021/09/06 08:00:06;;;;;;;18.47;16.47;;;28.60;84.30;;;;;;6155585;23;21378;-75
2021/09/06 08:02:41;;;;;;;16.90;14.60;;;28.50;83.80;;;;;;6156170;23;20420;-75
2021/09/06 08:05:09;;;;;;;21.57;16.27;;;28.30;84.70;;;;;;6130431;23;20408;-76
2021/09/06 08:07:37;;;;;;;17.67;15.30;;;27.90;85.10;;;;;;6156356;23;20704;-76
2021/09/06 08:10:06;;;;;;;19.33;14.27;;;27.60;86.20;;;;;;6156350;23;20822;-75
2021/09/06 08:12:33;;;;;;;19.10;16.00;;;27.30;86.40;;;;;;6154856;23;20459;-75
2021/09/06 08:15:00;;;;;;;18.83;14.80;;;26.90;86.70;;;;;;6156268;23;20392;-75
2021/09/06 08:17:34;;;;;;;18.73;14.50;;;25.90;88.60;;;;;;6155733;23;20455;-75
2021/09/06 08:20:03;;;;;;;24.30;17.70;;;25.60;90.70;;;;;;6156387;23;20396;-75
2021/09/06 08:22:30;;;;;;;23.03;17.07;;;25.70;90.80;;;;;;6156186;23;20459;-76
2021/09/06 08:25:02;;;;;;;25.00;14.97;;;25.80;90.40;;;;;;6157036;23;20392;-76
2021/09/06 08:27:29;;;;;;;19.30;15.20;;;25.90;90.50;;;;;;6155837;23;20529;-75
2021/09/06 08:29:58;;;;;;;22.13;15.33;;;26.40;89.70;;;;;;6155639;23;20883;-75
2021/09/06 08:32:25;;;;;;;17.07;13.60;;;27.30;88.50;;;;;;6155726;23;20763;-75
2021/09/06 08:34:54;;;;;;;17.37;14.50;;;27.80;85.70;;;;;;6156130;23;20404;-75
2021/09/06 08:37:30;;;;;;;22.00;14.90;;;27.90;84.60;;;;;;6154880;23;20433;-75
2021/09/06 08:39:57;;;;;;;16.77;14.17;;;28.40;84.60;;;;;;6155521;23;20427;-75
2021/09/06 08:42:24;;;;;;;19.30;14.67;;;28.50;83.10;;;;;;6155862;23;20428;-75
2021/09/06 08:44:52;;;;;;;16.53;13.53;;;28.80;82.90;;;;;;6155691;23;20856;-74
2021/09/06 08:47:19;;;;;;;18.30;14.30;;;28.80;82.30;;;;;;6154983;23;20399;-75
2021/09/06 08:49:46;;;;;;;18.70;13.63;;;28.80;82.50;;;;;;6155057;23;20864;-74
2021/09/06 08:52:14;;;;;;;17.00;14.53;;;29.00;81.50;;;;;;6155962;23;20805;-75
2021/09/06 08:54:43;;;;;;;16.83;14.07;;;29.10;79.40;;;;;;6155741;23;20408;-75
2021/09/06 08:57:10;;;;;;;16.80;13.77;;;29.30;78.30;;;;;;6155271;23;20499;-76
2021/09/06 08:59:41;;;;;;;16.70;14.10;;;29.70;77.50;;;;;;6155709;23;20399;-75
2021/09/06 09:02:08;;;;;;;15.40;13.00;;;30.00;78.40;;;;;;6155621;23;20737;-76
2021/09/06 09:04:36;;;;;;;19.03;14.37;;;30.00;76.00;;;;;;6155667;23;20405;-76
2021/09/06 09:07:04;;;;;;;17.97;13.63;;;29.90;76.90;;;;;;6155590;23;20464;-75
2021/09/06 09:09:35;;;;;;;28.53;19.50;;;29.70;76.30;;;;;;6155655;23;20397;-76
2021/09/06 09:12:11;;;;;;;18.33;15.33;;;29.80;76.80;;;;;;6155393;23;20432;-76
2021/09/06 09:14:41;;;;;;;19.87;15.27;;;29.70;76.30;;;;;;6155207;23;20432;-75
2021/09/06 09:17:09;;;;;;;17.00;13.10;;;29.60;76.70;;;;;;6155216;23;20433;-75
2021/09/06 09:19:37;;;;;;;16.37;13.00;;;29.70;77.10;;;;;;6155873;23;20403;-75
2021/09/06 09:22:14;;;;;;;15.57;13.40;;;29.50;76.90;;;;;;6155322;23;20765;-73
2021/09/06 09:24:41;;;;;;;14.80;13.23;;;29.70;76.60;;;;;;6154710;23;20875;-75
2021/09/06 09:27:13;;;;;;;16.93;14.20;;;29.90;77.20;;;;;;6154831;23;20392;-76
2021/09/06 09:29:42;;;;;;;16.13;14.00;;;29.60;76.70;;;;;;6156002;23;20397;-74
2021/09/06 09:32:11;;;;;;;18.53;13.00;;;29.80;76.70;;;;;;6155684;23;20438;-75
2021/09/06 09:34:39;;;;;;;19.90;13.03;;;29.50;77.00;;;;;;6156073;23;20717;-75
2021/09/06 09:37:07;;;;;;;18.27;13.00;;;29.60;78.20;;;;;;6154457;23;20520;-75
2021/09/06 09:39:35;;;;;;;17.63;14.57;;;29.70;78.50;;;;;;6155540;23;20400;-75
2021/09/06 09:42:08;;;;;;;17.00;13.90;;;28.50;78.00;;;;;;6155136;23;20764;-75
2021/09/06 09:44:47;;;;;;;16.50;13.33;;;28.60;80.10;;;;;;6155085;23;20381;-74
2021/09/06 09:47:16;;;;;;;19.33;14.97;;;28.00;81.70;;;;;;6154717;23;20393;-75
2021/09/06 09:49:43;;;;;;;19.97;15.33;;;27.50;82.70;;;;;;6155371;23;20397;-75
2021/09/06 09:52:11;;;;;;;22.03;15.00;;;26.80;83.90;;;;;;6155150;23;20436;-75
2021/09/06 09:54:38;;;;;;;17.83;13.00;;;26.50;86.20;;;;;;6155531;23;20397;-75
2021/09/06 09:57:06;;;;;;;15.00;12.10;;;26.30;86.60;;;;;;6154374;23;20535;-75
2021/09/06 09:59:33;;;;;;;17.80;13.27;;;26.30;86.70;;;;;;6156669;23;20396;-75
2021/09/06 10:02:07;;;;;;;24.77;12.97;;;26.40;86.50;;;;;;6156832;23;20450;-75
2021/09/06 10:04:40;;;;;;;22.63;13.30;;;26.10;87.10;;;;;;6130526;23;20715;-75
2021/09/06 10:07:09;;;;;;;15.53;12.20;;;26.00;86.20;;;;;;6156790;23;20874;-75
2021/09/06 10:09:45;;;;;;;15.93;11.93;;;25.70;88.10;;;;;;6158970;23;20421;-75
2021/09/06 10:12:18;;;;;;;13.57;11.10;;;25.30;88.50;;;;;;6157405;23;20446;-75
2021/09/06 10:14:50;;;;;;;15.43;11.43;;;25.10;89.30;;;;;;6156675;23;20435;-75
2021/09/06 10:17:18;;;;;;;20.33;12.37;;;25.00;89.30;;;;;;6156396;23;20821;-75
2021/09/06 10:19:49;;;;;;;15.50;10.90;;;25.00;89.60;;;;;;6156622;23;20397;-75
2021/09/06 10:22:23;;;;;;;14.37;10.17;;;25.30;89.70;;;;;;6156149;23;20458;-75
2021/09/06 10:24:58;;;;;;;16.80;10.97;;;25.90;88.00;;;;;;6156633;23;20377;-75
2021/09/06 10:27:29;;;;;;;16.60;11.83;;;26.50;87.10;;;;;;6156173;23;20425;-76
2021/09/06 10:30:04;;;;;;;18.13;12.30;;;26.60;83.70;;;;;;6157256;23;20408;-75
2021/09/06 10:32:40;;;;;;;16.03;11.60;;;26.50;85.00;;;;;;6157155;23;20432;-75
2021/09/06 10:35:37;;;;;;;20.07;10.60;;;26.40;85.00;;;;;;6157460;23;20863;-75
2021/09/06 10:38:06;;;;;;;20.93;11.53;;;26.20;86.10;;;;;;6157810;23;20489;-75
2021/09/06 10:40:37;;;;;;;14.67;11.13;;;26.10;87.10;;;;;;6157493;23;20400;-75
2021/09/06 10:43:16;;;;;;;12.70;9.60;;;26.40;83.70;;;;;;6156887;23;20439;-75
2021/09/06 10:45:44;;;;;;;11.53;9.30;;;26.50;84.10;;;;;;6155798;23;20403;-75
2021/09/06 10:48:19;;;;;;;16.70;9.60;;;26.30;84.80;;;;;;6155992;23;20397;-75
2021/09/06 10:50:48;;;;;;;12.40;10.27;;;26.20;86.10;;;;;;6156465;23;20451;-75
2021/09/06 10:53:20;;;;;;;14.80;8.57;;;26.10;83.50;;;;;;6155393;23;20399;-74
2021/09/06 10:55:50;;;;;;;11.93;8.80;;;25.90;85.80;;;;;;6155816;23;20408;-75
2021/09/06 10:58:18;;;;;;;12.40;10.20;;;25.90;86.30;;;;;;6156252;23;20428;-75
2021/09/06 11:00:50;;;;;;;12.07;9.27;;;25.90;85.80;;;;;;6155798;23;20413;-75
2021/09/06 11:03:19;;;;;;;10.10;8.83;;;25.90;86.50;;;;;;6157382;23;20401;-75
2021/09/06 11:05:53;;;;;;;17.20;11.40;;;25.90;86.50;;;;;;6155966;23;20397;-75
2021/09/06 11:08:25;;;;;;;14.37;11.70;;;25.80;85.30;;;;;;6156598;23;20385;-75
2021/09/06 11:10:53;;;;;;;12.77;10.10;;;25.90;86.30;;;;;;6155007;23;20429;-75
2021/09/06 11:13:20;;;;;;;16.23;11.27;;;25.80;85.90;;;;;;6156690;23;20701;-75
2021/09/06 11:15:47;;;;;;;10.73;9.27;;;25.60;86.00;;;;;;6156041;23;20693;-76
2021/09/06 11:18:15;;;;;;;11.00;9.00;;;25.30;88.80;;;;;;6155054;23;20440;-75
2021/09/06 11:20:46;;;;;;;15.07;8.73;;;25.30;86.40;;;;;;6156256;23;20397;-75
2021/09/06 11:23:14;;;;;;;12.17;8.13;;;25.30;86.10;;;;;;6155390;23;20460;-76
2021/09/06 11:25:52;;;;;;;11.77;8.60;;;25.00;86.40;;;;;;6155860;23;20468;-76
2021/09/06 11:28:20;;;;;;;10.10;8.33;;;25.00;86.50;;;;;;6156627;23;20400;-76
2021/09/06 11:30:47;;;;;;;11.70;8.10;;;25.10;87.50;;;;;;6155814;23;20437;-76
2021/09/06 11:33:15;;;;;;;14.90;8.57;;;25.10;86.60;;;;;;6157070;23;20407;-76
2021/09/06 11:35:45;;;;;;;9.10;6.67;;;25.10;86.20;;;;;;6155235;23;20460;-75
2021/09/06 11:38:14;;;;;;;9.87;7.97;;;25.10;84.70;;;;;;6155732;23;20437;-76
2021/09/06 11:40:43;;;;;;;10.87;7.27;;;25.00;83.90;;;;;;6155462;23;20397;-76
2021/09/06 11:43:10;;;;;;;18.43;8.87;;;25.00;84.00;;;;;;6155560;23;20411;-75
2021/09/06 11:45:38;;;;;;;10.97;8.43;;;25.00;82.90;;;;;;6154917;23;20403;-75
2021/09/06 11:48:07;;;;;;;14.50;9.03;;;24.90;83.90;;;;;;6155896;23;20399;-77
2021/09/06 11:50:36;;;;;;;10.90;8.10;;;25.00;85.10;;;;;;6155385;23;20787;-74
2021/09/06 11:53:06;;;;;;;8.17;7.20;;;25.00;84.40;;;;;;6155916;23;20723;-75
2021/09/06 11:55:34;;;;;;;13.30;8.17;;;24.90;83.90;;;;;;6154923;23;20381;-75
2021/09/06 11:58:11;;;;;;;10.53;7.03;;;25.00;85.90;;;;;;6155316;23;20425;-75
2021/09/06 12:00:40;;;;;;;13.13;6.67;;;25.20;83.80;;;;;;6155179;23;20429;-75
2021/09/06 12:03:08;;;;;;;10.33;6.90;;;25.00;81.60;;;;;;6156182;23;20415;-75
2021/09/06 12:05:47;;;;;;;10.43;5.90;;;24.80;83.40;;;;;;6155666;23;20388;-76
2021/09/06 12:08:17;;;;;;;10.70;7.37;;;24.80;82.50;;;;;;6155967;23;20856;-74
2021/09/06 12:10:47;;;;;;;11.63;5.63;;;24.90;83.80;;;;;;6155086;23;20392;-75
2021/09/06 12:13:20;;;;;;;12.83;7.10;;;25.00;80.40;;;;;;6155223;23;20424;-75
2021/09/06 12:15:56;;;;;;;14.27;6.17;;;24.80;80.10;;;;;;6128294;23;20864;-76
2021/09/06 12:18:24;;;;;;;15.63;5.70;;;25.00;81.40;;;;;;6154645;23;20902;-76
2021/09/06 12:21:02;;;;;;;12.97;6.80;;;25.00;80.00;;;;;;6154940;23;20432;-77
2021/09/06 12:23:33;;;;;;;8.50;6.30;;;25.00;81.70;;;;;;6155168;23;20396;-76
2021/09/06 12:26:00;;;;;;;24.53;19.17;;;25.10;81.20;;;;;;6154739;23;20404;-75
2021/09/06 12:28:27;;;;;;;7.70;5.17;;;25.30;81.60;;;;;;6155456;23;20404;-76
2021/09/06 12:31:00;;;;;;;6.23;5.10;;;25.20;78.00;;;;;;6155042;23;20439;-75
2021/09/06 12:33:28;;;;;;;8.27;5.80;;;25.30;78.50;;;;;;6155050;23;20395;-76
2021/09/06 12:35:55;;;;;;;6.80;5.53;;;25.30;79.40;;;;;;6155036;23;20531;-75